sensor_id;sensor_type;location;lat;lon;timestamp;temperature;humidity
3602;DHT22;1815;50.950;6.920;2024-03-22T00:00:16;13.40;99.90
3602;DHT22;1815;50.950;6.920;2024-03-22T00:02:42;13.40;99.90
3602;DHT22;1815;50.950;6.920;2024-03-22T00:05:07;13.40;99.90
3602;DHT22;1815;50.950;6.920;2024-03-22T00:07:33;13.40;99.90
3602;DHT22;1815;50.950;6.920;2024-03-22T00:09:59;13.40;99.90
3602;DHT22;1815;50.950;6.920;2024-03-22T00:12:25;13.40;99.90
3602;DHT22;1815;50.950;6.920;2024-03-22T00:14:51;13.40;99.90
3602;DHT22;1815;50.950;6.920;2024-03-22T00:17:20;13.40;99.90
3602;DHT22;1815;50.950;6.920;2024-03-22T00:19:46;13.40;99.90
3602;DHT22;1815;50.950;6.920;2024-03-22T00:22:11;13.40;99.90
3602;DHT22;1815;50.950;6.920;2024-03-22T00:24:37;13.40;99.90
3602;DHT22;1815;50.950;6.920;2024-03-22T00:27:03;13.30;99.90
3602;DHT22;1815;50.950;6.920;2024-03-22T00:29:29;13.30;99.90
3602;DHT22;1815;50.950;6.920;2024-03-22T00:31:54;13.30;99.90
3602;DHT22;1815;50.950;6.920;2024-03-22T00:34:20;13.30;99.90
3602;DHT22;1815;50.950;6.920;2024-03-22T00:36:46;13.30;99.90
3602;DHT22;1815;50.950;6.920;2024-03-22T00:39:12;13.30;99.90
3602;DHT22;1815;50.950;6.920;2024-03-22T00:41:38;13.30;99.90
3602;DHT22;1815;50.950;6.920;2024-03-22T00:44:04;13.30;99.90
3602;DHT22;1815;50.950;6.920;2024-03-22T00:46:30;13.30;99.90
3602;DHT22;1815;50.950;6.920;2024-03-22T00:48:56;13.30;99.90
3602;DHT22;1815;50.950;6.920;2024-03-22T00:51:25;13.30;99.90
3602;DHT22;1815;50.950;6.920;2024-03-22T00:53:51;13.30;99.90
3602;DHT22;1815;50.950;6.920;2024-03-22T00:56:16;13.30;99.90
3602;DHT22;1815;50.950;6.920;2024-03-22T00:58:42;13.30;99.90
3602;DHT22;1815;50.950;6.920;2024-03-22T01:01:08;13.30;99.90
3602;DHT22;1815;50.950;6.920;2024-03-22T01:03:33;13.30;99.90
3602;DHT22;1815;50.950;6.920;2024-03-22T01:05:59;13.30;99.90
3602;DHT22;1815;50.950;6.920;2024-03-22T01:08:26;13.30;99.90
3602;DHT22;1815;50.950;6.920;2024-03-22T01:10:52;13.30;99.90
3602;DHT22;1815;50.950;6.920;2024-03-22T01:13:20;13.30;99.90
3602;DHT22;1815;50.950;6.920;2024-03-22T01:15:46;13.30;99.90
3602;DHT22;1815;50.950;6.920;2024-03-22T01:18:12;13.30;99.90
3602;DHT22;1815;50.950;6.920;2024-03-22T01:20:37;13.30;99.90
3602;DHT22;1815;50.950;6.920;2024-03-22T01:23:03;13.30;99.90
3602;DHT22;1815;50.950;6.920;2024-03-22T01:25:30;13.30;99.90
3602;DHT22;1815;50.950;6.920;2024-03-22T01:27:56;13.30;99.90
3602;DHT22;1815;50.950;6.920;2024-03-22T01:30:22;13.30;99.90
3602;DHT22;1815;50.950;6.920;2024-03-22T01:32:48;13.30;99.90
3602;DHT22;1815;50.950;6.920;2024-03-22T01:35:13;13.30;99.90
3602;DHT22;1815;50.950;6.920;2024-03-22T01:37:39;13.30;99.90
3602;DHT22;1815;50.950;6.920;2024-03-22T01:40:06;13.30;99.90
3602;DHT22;1815;50.950;6.920;2024-03-22T01:42:31;13.30;99.90
3602;DHT22;1815;50.950;6.920;2024-03-22T01:44:57;13.30;99.90
3602;DHT22;1815;50.950;6.920;2024-03-22T01:47:23;13.30;99.90
3602;DHT22;1815;50.950;6.920;2024-03-22T01:49:51;13.30;99.90
3602;DHT22;1815;50.950;6.920;2024-03-22T01:52:18;13.30;99.90
3602;DHT22;1815;50.950;6.920;2024-03-22T01:54:43;13.30;99.90
3602;DHT22;1815;50.950;6.920;2024-03-22T01:57:09;13.30;99.90
3602;DHT22;1815;50.950;6.920;2024-03-22T01:59:35;13.30;99.90
3602;DHT22;1815;50.950;6.920;2024-03-22T02:02:01;13.30;99.90
3602;DHT22;1815;50.950;6.920;2024-03-22T02:04:28;13.30;99.90
3602;DHT22;1815;50.950;6.920;2024-03-22T02:06:53;13.30;99.90
3602;DHT22;1815;50.950;6.920;2024-03-22T02:09:19;13.30;99.90
3602;DHT22;1815;50.950;6.920;2024-03-22T02:11:46;13.30;99.90
3602;DHT22;1815;50.950;6.920;2024-03-22T02:14:12;13.30;99.90
3602;DHT22;1815;50.950;6.920;2024-03-22T02:16:40;13.20;99.90
3602;DHT22;1815;50.950;6.920;2024-03-22T02:19:07;13.20;99.90
3602;DHT22;1815;50.950;6.920;2024-03-22T02:21:32;13.20;99.90
3602;DHT22;1815;50.950;6.920;2024-03-22T02:23:58;13.20;99.90
3602;DHT22;1815;50.950;6.920;2024-03-22T02:26:24;13.30;99.90
3602;DHT22;1815;50.950;6.920;2024-03-22T02:28:49;13.20;99.90
3602;DHT22;1815;50.950;6.920;2024-03-22T02:31:15;13.20;99.90
3602;DHT22;1815;50.950;6.920;2024-03-22T02:33:41;13.20;99.90
3602;DHT22;1815;50.950;6.920;2024-03-22T02:36:07;13.20;99.90
3602;DHT22;1815;50.950;6.920;2024-03-22T02:38:32;13.20;99.90
3602;DHT22;1815;50.950;6.920;2024-03-22T02:40:58;13.20;99.90
3602;DHT22;1815;50.950;6.920;2024-03-22T02:43:24;13.20;99.90
3602;DHT22;1815;50.950;6.920;2024-03-22T02:45:50;13.30;99.90
3602;DHT22;1815;50.950;6.920;2024-03-22T02:48:16;13.30;99.90
3602;DHT22;1815;50.950;6.920;2024-03-22T02:50:41;13.20;99.90
3602;DHT22;1815;50.950;6.920;2024-03-22T02:53:07;13.30;99.90
3602;DHT22;1815;50.950;6.920;2024-03-22T02:55:37;13.20;99.90
3602;DHT22;1815;50.950;6.920;2024-03-22T02:58:03;13.30;99.90
3602;DHT22;1815;50.950;6.920;2024-03-22T03:00:29;13.30;99.90
3602;DHT22;1815;50.950;6.920;2024-03-22T03:02:55;13.30;99.90
3602;DHT22;1815;50.950;6.920;2024-03-22T03:05:21;13.30;99.90
3602;DHT22;1815;50.950;6.920;2024-03-22T03:07:49;13.30;99.90
3602;DHT22;1815;50.950;6.920;2024-03-22T03:10:16;13.30;99.90
3602;DHT22;1815;50.950;6.920;2024-03-22T03:12:42;13.30;99.90
3602;DHT22;1815;50.950;6.920;2024-03-22T03:15:08;13.40;99.90
3602;DHT22;1815;50.950;6.920;2024-03-22T03:17:33;13.40;99.90
3602;DHT22;1815;50.950;6.920;2024-03-22T03:19:59;13.40;99.90
3602;DHT22;1815;50.950;6.920;2024-03-22T03:22:25;13.40;99.90
3602;DHT22;1815;50.950;6.920;2024-03-22T03:24:50;13.40;99.90
3602;DHT22;1815;50.950;6.920;2024-03-22T03:27:16;13.50;99.90
3602;DHT22;1815;50.950;6.920;2024-03-22T03:29:42;13.50;99.90
3602;DHT22;1815;50.950;6.920;2024-03-22T03:32:08;13.50;99.90
3602;DHT22;1815;50.950;6.920;2024-03-22T03:34:33;13.50;99.90
3602;DHT22;1815;50.950;6.920;2024-03-22T03:36:59;13.50;99.90
3602;DHT22;1815;50.950;6.920;2024-03-22T03:39:27;13.50;99.90
3602;DHT22;1815;50.950;6.920;2024-03-22T03:41:54;13.50;99.90
3602;DHT22;1815;50.950;6.920;2024-03-22T03:44:20;13.50;99.90
3602;DHT22;1815;50.950;6.920;2024-03-22T03:46:46;13.50;99.90
3602;DHT22;1815;50.950;6.920;2024-03-22T03:49:12;13.50;99.90
3602;DHT22;1815;50.950;6.920;2024-03-22T03:51:40;13.50;99.90
3602;DHT22;1815;50.950;6.920;2024-03-22T03:54:06;13.40;99.90
3602;DHT22;1815;50.950;6.920;2024-03-22T03:56:32;13.40;99.90
3602;DHT22;1815;50.950;6.920;2024-03-22T03:58:58;13.40;99.90
3602;DHT22;1815;50.950;6.920;2024-03-22T04:01:23;13.50;99.90
3602;DHT22;1815;50.950;6.920;2024-03-22T04:03:49;13.40;99.90
3602;DHT22;1815;50.950;6.920;2024-03-22T04:06:15;13.40;99.90
3602;DHT22;1815;50.950;6.920;2024-03-22T04:08:42;13.50;99.90
3602;DHT22;1815;50.950;6.920;2024-03-22T04:11:08;13.50;99.90
3602;DHT22;1815;50.950;6.920;2024-03-22T04:13:33;13.50;99.90
3602;DHT22;1815;50.950;6.920;2024-03-22T04:16:00;13.50;99.90
3602;DHT22;1815;50.950;6.920;2024-03-22T04:18:26;13.50;99.90
3602;DHT22;1815;50.950;6.920;2024-03-22T04:20:56;13.50;99.90
3602;DHT22;1815;50.950;6.920;2024-03-22T04:23:23;13.50;99.90
3602;DHT22;1815;50.950;6.920;2024-03-22T04:25:57;13.50;99.90
3602;DHT22;1815;50.950;6.920;2024-03-22T04:28:24;13.60;99.90
3602;DHT22;1815;50.950;6.920;2024-03-22T04:33:25;13.50;99.90
3602;DHT22;1815;50.950;6.920;2024-03-22T04:35:51;13.40;99.90
3602;DHT22;1815;50.950;6.920;2024-03-22T04:38:17;13.40;99.90
3602;DHT22;1815;50.950;6.920;2024-03-22T04:40:43;13.40;99.90
3602;DHT22;1815;50.950;6.920;2024-03-22T04:43:08;13.30;99.90
3602;DHT22;1815;50.950;6.920;2024-03-22T04:45:34;13.30;99.90
3602;DHT22;1815;50.950;6.920;2024-03-22T04:48:03;13.20;99.90
3602;DHT22;1815;50.950;6.920;2024-03-22T04:50:29;13.20;99.90
3602;DHT22;1815;50.950;6.920;2024-03-22T04:52:57;13.20;99.90
3602;DHT22;1815;50.950;6.920;2024-03-22T04:55:23;13.10;99.90
3602;DHT22;1815;50.950;6.920;2024-03-22T04:57:49;13.10;99.90
3602;DHT22;1815;50.950;6.920;2024-03-22T05:00:15;13.20;99.90
3602;DHT22;1815;50.950;6.920;2024-03-22T05:02:41;13.20;99.90
3602;DHT22;1815;50.950;6.920;2024-03-22T05:05:06;13.20;99.90
3602;DHT22;1815;50.950;6.920;2024-03-22T05:07:35;13.20;99.90
3602;DHT22;1815;50.950;6.920;2024-03-22T05:10:01;13.30;99.90
3602;DHT22;1815;50.950;6.920;2024-03-22T05:12:28;13.30;99.90
3602;DHT22;1815;50.950;6.920;2024-03-22T05:14:55;13.30;99.90
3602;DHT22;1815;50.950;6.920;2024-03-22T05:17:20;13.30;99.90
3602;DHT22;1815;50.950;6.920;2024-03-22T05:19:46;13.30;99.90
3602;DHT22;1815;50.950;6.920;2024-03-22T05:22:12;13.40;99.90
3602;DHT22;1815;50.950;6.920;2024-03-22T05:24:38;13.40;99.90
3602;DHT22;1815;50.950;6.920;2024-03-22T05:27:04;13.40;99.90
3602;DHT22;1815;50.950;6.920;2024-03-22T05:29:29;13.40;99.90
3602;DHT22;1815;50.950;6.920;2024-03-22T05:31:55;13.40;99.90
3602;DHT22;1815;50.950;6.920;2024-03-22T05:34:21;13.50;99.90
3602;DHT22;1815;50.950;6.920;2024-03-22T05:36:46;13.50;99.90
3602;DHT22;1815;50.950;6.920;2024-03-22T05:39:12;13.50;99.90
3602;DHT22;1815;50.950;6.920;2024-03-22T05:41:39;13.50;99.90
3602;DHT22;1815;50.950;6.920;2024-03-22T05:44:04;13.60;99.90
3602;DHT22;1815;50.950;6.920;2024-03-22T05:46:30;13.60;99.90
3602;DHT22;1815;50.950;6.920;2024-03-22T05:48:57;13.70;99.90
3602;DHT22;1815;50.950;6.920;2024-03-22T05:51:24;13.70;99.90
3602;DHT22;1815;50.950;6.920;2024-03-22T05:53:50;13.80;99.90
3602;DHT22;1815;50.950;6.920;2024-03-22T05:56:17;13.80;99.90
3602;DHT22;1815;50.950;6.920;2024-03-22T05:58:42;13.80;99.90
3602;DHT22;1815;50.950;6.920;2024-03-22T06:01:08;13.90;99.90
3602;DHT22;1815;50.950;6.920;2024-03-22T06:03:34;13.90;99.90
3602;DHT22;1815;50.950;6.920;2024-03-22T06:06:00;13.90;99.90
3602;DHT22;1815;50.950;6.920;2024-03-22T06:08:26;14.00;99.90
3602;DHT22;1815;50.950;6.920;2024-03-22T06:10:54;14.00;99.90
3602;DHT22;1815;50.950;6.920;2024-03-22T06:13:20;14.00;99.90
3602;DHT22;1815;50.950;6.920;2024-03-22T06:15:48;14.10;99.90
3602;DHT22;1815;50.950;6.920;2024-03-22T06:18:14;14.20;99.90
3602;DHT22;1815;50.950;6.920;2024-03-22T06:20:40;14.20;99.90
3602;DHT22;1815;50.950;6.920;2024-03-22T06:23:07;14.30;99.90
3602;DHT22;1815;50.950;6.920;2024-03-22T06:25:33;14.40;99.90
3602;DHT22;1815;50.950;6.920;2024-03-22T06:27:59;14.50;99.90
3602;DHT22;1815;50.950;6.920;2024-03-22T06:30:25;14.50;99.90
3602;DHT22;1815;50.950;6.920;2024-03-22T06:32:51;14.60;99.90
3602;DHT22;1815;50.950;6.920;2024-03-22T06:35:17;14.60;99.90
3602;DHT22;1815;50.950;6.920;2024-03-22T06:37:43;14.70;99.90
3602;DHT22;1815;50.950;6.920;2024-03-22T06:40:09;14.70;99.90
3602;DHT22;1815;50.950;6.920;2024-03-22T06:42:35;14.80;99.90
3602;DHT22;1815;50.950;6.920;2024-03-22T06:45:02;14.80;99.90
3602;DHT22;1815;50.950;6.920;2024-03-22T06:47:28;14.80;99.90
3602;DHT22;1815;50.950;6.920;2024-03-22T06:49:54;14.80;99.90
3602;DHT22;1815;50.950;6.920;2024-03-22T06:52:20;14.90;99.90
3602;DHT22;1815;50.950;6.920;2024-03-22T06:54:47;14.90;99.90
3602;DHT22;1815;50.950;6.920;2024-03-22T06:57:12;15.00;99.90
3602;DHT22;1815;50.950;6.920;2024-03-22T06:59:38;15.10;99.90
3602;DHT22;1815;50.950;6.920;2024-03-22T07:02:04;15.20;99.90
3602;DHT22;1815;50.950;6.920;2024-03-22T07:04:29;15.30;99.90
3602;DHT22;1815;50.950;6.920;2024-03-22T07:06:55;15.40;99.90
3602;DHT22;1815;50.950;6.920;2024-03-22T07:09:21;15.50;99.90
3602;DHT22;1815;50.950;6.920;2024-03-22T07:11:47;15.60;99.90
3602;DHT22;1815;50.950;6.920;2024-03-22T07:14:12;15.70;99.90
3602;DHT22;1815;50.950;6.920;2024-03-22T07:16:38;15.80;99.90
3602;DHT22;1815;50.950;6.920;2024-03-22T07:19:04;15.90;99.90
3602;DHT22;1815;50.950;6.920;2024-03-22T07:21:31;15.90;99.90
3602;DHT22;1815;50.950;6.920;2024-03-22T07:23:57;16.00;99.90
3602;DHT22;1815;50.950;6.920;2024-03-22T07:26:22;16.10;99.90
3602;DHT22;1815;50.950;6.920;2024-03-22T07:28:48;16.20;99.90
3602;DHT22;1815;50.950;6.920;2024-03-22T07:31:14;16.30;99.90
3602;DHT22;1815;50.950;6.920;2024-03-22T07:33:40;16.40;99.90
3602;DHT22;1815;50.950;6.920;2024-03-22T07:36:06;16.40;99.90
3602;DHT22;1815;50.950;6.920;2024-03-22T07:38:32;16.50;99.90
3602;DHT22;1815;50.950;6.920;2024-03-22T07:40:58;16.50;99.90
3602;DHT22;1815;50.950;6.920;2024-03-22T07:43:24;16.50;99.90
3602;DHT22;1815;50.950;6.920;2024-03-22T07:45:49;16.60;99.90
3602;DHT22;1815;50.950;6.920;2024-03-22T07:48:15;16.80;99.90
3602;DHT22;1815;50.950;6.920;2024-03-22T07:50:42;16.90;99.90
3602;DHT22;1815;50.950;6.920;2024-03-22T07:53:08;17.20;99.90
3602;DHT22;1815;50.950;6.920;2024-03-22T07:55:34;17.40;99.90
3602;DHT22;1815;50.950;6.920;2024-03-22T07:58:00;17.70;99.90
3602;DHT22;1815;50.950;6.920;2024-03-22T08:00:27;18.00;99.90
3602;DHT22;1815;50.950;6.920;2024-03-22T08:02:53;18.20;99.90
3602;DHT22;1815;50.950;6.920;2024-03-22T08:05:19;18.50;99.90
3602;DHT22;1815;50.950;6.920;2024-03-22T08:07:45;18.70;99.90
3602;DHT22;1815;50.950;6.920;2024-03-22T08:10:11;18.90;99.90
3602;DHT22;1815;50.950;6.920;2024-03-22T08:12:36;19.00;99.90
3602;DHT22;1815;50.950;6.920;2024-03-22T08:15:02;19.10;99.90
3602;DHT22;1815;50.950;6.920;2024-03-22T08:17:28;19.10;99.90
3602;DHT22;1815;50.950;6.920;2024-03-22T08:19:54;19.10;99.90
3602;DHT22;1815;50.950;6.920;2024-03-22T08:22:20;19.10;99.90
3602;DHT22;1815;50.950;6.920;2024-03-22T08:24:45;19.20;99.90
3602;DHT22;1815;50.950;6.920;2024-03-22T08:27:11;19.20;99.90
3602;DHT22;1815;50.950;6.920;2024-03-22T08:29:37;19.30;99.90
3602;DHT22;1815;50.950;6.920;2024-03-22T08:32:04;19.50;99.90
3602;DHT22;1815;50.950;6.920;2024-03-22T08:34:30;19.80;99.90
3602;DHT22;1815;50.950;6.920;2024-03-22T08:36:58;20.10;99.90
3602;DHT22;1815;50.950;6.920;2024-03-22T08:39:24;20.30;99.90
3602;DHT22;1815;50.950;6.920;2024-03-22T08:41:50;20.40;99.90
3602;DHT22;1815;50.950;6.920;2024-03-22T08:44:16;20.50;99.90
3602;DHT22;1815;50.950;6.920;2024-03-22T08:46:42;20.50;99.90
3602;DHT22;1815;50.950;6.920;2024-03-22T08:49:08;20.40;99.90
3602;DHT22;1815;50.950;6.920;2024-03-22T08:51:33;20.50;99.90
3602;DHT22;1815;50.950;6.920;2024-03-22T08:53:59;20.40;99.90
3602;DHT22;1815;50.950;6.920;2024-03-22T08:56:26;20.40;99.90
3602;DHT22;1815;50.950;6.920;2024-03-22T08:58:52;20.30;99.90
3602;DHT22;1815;50.950;6.920;2024-03-22T09:01:18;20.20;99.90
3602;DHT22;1815;50.950;6.920;2024-03-22T09:03:44;20.10;99.90
3602;DHT22;1815;50.950;6.920;2024-03-22T09:06:12;20.10;99.90
3602;DHT22;1815;50.950;6.920;2024-03-22T09:08:38;20.20;99.90
3602;DHT22;1815;50.950;6.920;2024-03-22T09:11:04;20.40;99.90
3602;DHT22;1815;50.950;6.920;2024-03-22T09:13:30;20.60;99.90
3602;DHT22;1815;50.950;6.920;2024-03-22T09:15:59;20.70;99.90
3602;DHT22;1815;50.950;6.920;2024-03-22T09:18:26;21.00;99.90
3602;DHT22;1815;50.950;6.920;2024-03-22T09:20:54;21.30;99.90
3602;DHT22;1815;50.950;6.920;2024-03-22T09:23:21;21.60;99.90
3602;DHT22;1815;50.950;6.920;2024-03-22T09:25:47;21.90;99.90
3602;DHT22;1815;50.950;6.920;2024-03-22T09:28:14;22.20;99.90
3602;DHT22;1815;50.950;6.920;2024-03-22T09:30:40;22.40;99.90
3602;DHT22;1815;50.950;6.920;2024-03-22T09:33:07;22.60;99.90
3602;DHT22;1815;50.950;6.920;2024-03-22T09:35:34;23.00;99.90
3602;DHT22;1815;50.950;6.920;2024-03-22T09:37:59;23.20;99.90
3602;DHT22;1815;50.950;6.920;2024-03-22T09:40:25;23.40;99.90
3602;DHT22;1815;50.950;6.920;2024-03-22T09:42:53;23.50;99.90
3602;DHT22;1815;50.950;6.920;2024-03-22T09:45:19;23.50;99.90
3602;DHT22;1815;50.950;6.920;2024-03-22T09:47:48;23.50;99.90
3602;DHT22;1815;50.950;6.920;2024-03-22T09:50:14;23.50;99.90
3602;DHT22;1815;50.950;6.920;2024-03-22T09:52:41;23.60;99.90
3602;DHT22;1815;50.950;6.920;2024-03-22T09:55:08;23.70;99.90
3602;DHT22;1815;50.950;6.920;2024-03-22T09:57:38;23.80;99.90
3602;DHT22;1815;50.950;6.920;2024-03-22T10:00:06;23.80;99.90
3602;DHT22;1815;50.950;6.920;2024-03-22T10:02:38;23.80;99.90
3602;DHT22;1815;50.950;6.920;2024-03-22T10:05:04;23.80;99.90
3602;DHT22;1815;50.950;6.920;2024-03-22T10:07:30;23.80;99.90
3602;DHT22;1815;50.950;6.920;2024-03-22T10:09:59;23.70;99.90
3602;DHT22;1815;50.950;6.920;2024-03-22T10:12:25;23.60;99.90
3602;DHT22;1815;50.950;6.920;2024-03-22T10:14:53;23.40;99.90
3602;DHT22;1815;50.950;6.920;2024-03-22T10:17:20;23.20;99.80
3602;DHT22;1815;50.950;6.920;2024-03-22T10:19:48;23.00;99.40
3602;DHT22;1815;50.950;6.920;2024-03-22T10:22:16;22.80;98.50
3602;DHT22;1815;50.950;6.920;2024-03-22T10:24:44;22.60;98.50
3602;DHT22;1815;50.950;6.920;2024-03-22T10:27:10;22.30;98.60
3602;DHT22;1815;50.950;6.920;2024-03-22T10:29:36;22.10;98.20
3602;DHT22;1815;50.950;6.920;2024-03-22T10:32:02;21.90;98.50
3602;DHT22;1815;50.950;6.920;2024-03-22T10:34:28;21.70;98.60
3602;DHT22;1815;50.950;6.920;2024-03-22T10:36:59;21.60;98.50
3602;DHT22;1815;50.950;6.920;2024-03-22T10:39:26;21.50;98.70
3602;DHT22;1815;50.950;6.920;2024-03-22T10:41:52;21.40;99.30
3602;DHT22;1815;50.950;6.920;2024-03-22T10:44:18;21.40;99.50
3602;DHT22;1815;50.950;6.920;2024-03-22T10:46:48;21.40;99.50
3602;DHT22;1815;50.950;6.920;2024-03-22T10:49:16;21.40;99.40
3602;DHT22;1815;50.950;6.920;2024-03-22T10:51:45;21.40;99.50
3602;DHT22;1815;50.950;6.920;2024-03-22T10:54:19;21.50;99.70
3602;DHT22;1815;50.950;6.920;2024-03-22T10:56:47;21.50;99.80
3602;DHT22;1815;50.950;6.920;2024-03-22T10:59:22;21.60;99.80
3602;DHT22;1815;50.950;6.920;2024-03-22T11:01:49;21.70;99.70
3602;DHT22;1815;50.950;6.920;2024-03-22T11:04:22;21.70;99.60
3602;DHT22;1815;50.950;6.920;2024-03-22T11:06:52;21.70;99.60
3602;DHT22;1815;50.950;6.920;2024-03-22T11:09:27;21.80;99.50
3602;DHT22;1815;50.950;6.920;2024-03-22T11:11:54;21.80;98.60
3602;DHT22;1815;50.950;6.920;2024-03-22T11:14:19;21.70;98.80
3602;DHT22;1815;50.950;6.920;2024-03-22T11:16:52;21.60;98.70
3602;DHT22;1815;50.950;6.920;2024-03-22T11:19:20;21.50;98.30
3602;DHT22;1815;50.950;6.920;2024-03-22T11:21:46;21.40;98.10
3602;DHT22;1815;50.950;6.920;2024-03-22T11:24:12;21.30;98.30
3602;DHT22;1815;50.950;6.920;2024-03-22T11:26:37;21.20;98.30
3602;DHT22;1815;50.950;6.920;2024-03-22T11:29:03;21.20;98.60
3602;DHT22;1815;50.950;6.920;2024-03-22T11:31:29;21.10;98.80
3602;DHT22;1815;50.950;6.920;2024-03-22T11:33:55;21.10;99.10
3602;DHT22;1815;50.950;6.920;2024-03-22T11:36:22;21.20;99.20
3602;DHT22;1815;50.950;6.920;2024-03-22T11:38:48;21.20;99.00
3602;DHT22;1815;50.950;6.920;2024-03-22T11:41:28;21.20;99.20
3602;DHT22;1815;50.950;6.920;2024-03-22T11:43:55;21.20;99.30
3602;DHT22;1815;50.950;6.920;2024-03-22T11:46:24;21.30;99.50
3602;DHT22;1815;50.950;6.920;2024-03-22T11:48:53;21.40;99.60
3602;DHT22;1815;50.950;6.920;2024-03-22T11:51:20;21.40;99.40
3602;DHT22;1815;50.950;6.920;2024-03-22T11:53:52;21.50;99.30
3602;DHT22;1815;50.950;6.920;2024-03-22T11:56:20;21.50;98.80
3602;DHT22;1815;50.950;6.920;2024-03-22T11:58:47;21.50;98.80
3602;DHT22;1815;50.950;6.920;2024-03-22T12:01:14;21.40;98.80
3602;DHT22;1815;50.950;6.920;2024-03-22T12:03:42;21.40;98.80
3602;DHT22;1815;50.950;6.920;2024-03-22T12:06:09;21.30;98.70
3602;DHT22;1815;50.950;6.920;2024-03-22T12:08:36;21.30;98.70
3602;DHT22;1815;50.950;6.920;2024-03-22T12:11:04;21.20;98.50
3602;DHT22;1815;50.950;6.920;2024-03-22T12:13:29;21.10;98.20
3602;DHT22;1815;50.950;6.920;2024-03-22T12:15:56;21.10;98.20
3602;DHT22;1815;50.950;6.920;2024-03-22T12:18:21;21.10;98.20
3602;DHT22;1815;50.950;6.920;2024-03-22T12:20:47;21.00;98.20
3602;DHT22;1815;50.950;6.920;2024-03-22T12:23:13;20.90;98.00
3602;DHT22;1815;50.950;6.920;2024-03-22T12:25:38;20.90;97.70
3602;DHT22;1815;50.950;6.920;2024-03-22T12:28:04;20.80;97.70
3602;DHT22;1815;50.950;6.920;2024-03-22T12:30:30;20.80;97.70
3602;DHT22;1815;50.950;6.920;2024-03-22T12:32:57;20.70;97.70
3602;DHT22;1815;50.950;6.920;2024-03-22T12:35:23;20.70;97.80
3602;DHT22;1815;50.950;6.920;2024-03-22T12:37:50;20.70;97.70
3602;DHT22;1815;50.950;6.920;2024-03-22T12:40:15;20.60;97.70
3602;DHT22;1815;50.950;6.920;2024-03-22T12:42:41;20.60;97.70
3602;DHT22;1815;50.950;6.920;2024-03-22T12:45:07;20.50;97.50
3602;DHT22;1815;50.950;6.920;2024-03-22T12:47:33;20.40;97.10
3602;DHT22;1815;50.950;6.920;2024-03-22T12:49:59;20.40;97.00
3602;DHT22;1815;50.950;6.920;2024-03-22T12:52:24;20.30;97.00
3602;DHT22;1815;50.950;6.920;2024-03-22T12:54:50;20.20;97.10
3602;DHT22;1815;50.950;6.920;2024-03-22T12:57:16;20.20;97.10
3602;DHT22;1815;50.950;6.920;2024-03-22T12:59:43;20.20;97.10
3602;DHT22;1815;50.950;6.920;2024-03-22T13:02:11;20.10;97.00
3602;DHT22;1815;50.950;6.920;2024-03-22T13:04:36;20.10;97.00
3602;DHT22;1815;50.950;6.920;2024-03-22T13:07:02;20.10;97.00
3602;DHT22;1815;50.950;6.920;2024-03-22T13:09:28;20.10;97.20
3602;DHT22;1815;50.950;6.920;2024-03-22T13:11:54;20.10;97.60
3602;DHT22;1815;50.950;6.920;2024-03-22T13:14:19;20.10;97.50
3602;DHT22;1815;50.950;6.920;2024-03-22T13:16:46;20.10;97.50
3602;DHT22;1815;50.950;6.920;2024-03-22T13:19:12;20.20;97.70
3602;DHT22;1815;50.950;6.920;2024-03-22T13:21:39;20.20;97.90
3602;DHT22;1815;50.950;6.920;2024-03-22T13:24:05;20.30;97.90
3602;DHT22;1815;50.950;6.920;2024-03-22T13:26:31;20.40;97.80
3602;DHT22;1815;50.950;6.920;2024-03-22T13:28:57;20.40;97.60
3602;DHT22;1815;50.950;6.920;2024-03-22T13:31:22;20.50;97.40
3602;DHT22;1815;50.950;6.920;2024-03-22T13:33:49;20.50;97.30
3602;DHT22;1815;50.950;6.920;2024-03-22T13:36:14;20.50;97.10
3602;DHT22;1815;50.950;6.920;2024-03-22T13:38:40;20.40;95.50
3602;DHT22;1815;50.950;6.920;2024-03-22T13:41:06;20.40;96.10
3602;DHT22;1815;50.950;6.920;2024-03-22T13:43:31;20.50;96.30
3602;DHT22;1815;50.950;6.920;2024-03-22T13:45:57;20.50;96.20
3602;DHT22;1815;50.950;6.920;2024-03-22T13:48:24;20.60;96.30
3602;DHT22;1815;50.950;6.920;2024-03-22T13:50:51;20.60;96.10
3602;DHT22;1815;50.950;6.920;2024-03-22T13:53:17;20.60;96.10
3602;DHT22;1815;50.950;6.920;2024-03-22T13:55:43;20.70;96.10
3602;DHT22;1815;50.950;6.920;2024-03-22T13:58:09;20.70;96.00
3602;DHT22;1815;50.950;6.920;2024-03-22T14:00:34;20.70;95.90
3602;DHT22;1815;50.950;6.920;2024-03-22T14:03:01;20.70;95.70
3602;DHT22;1815;50.950;6.920;2024-03-22T14:05:27;20.70;95.60
3602;DHT22;1815;50.950;6.920;2024-03-22T14:07:53;20.70;95.50
3602;DHT22;1815;50.950;6.920;2024-03-22T14:10:19;20.70;95.50
3602;DHT22;1815;50.950;6.920;2024-03-22T14:12:47;20.70;95.40
3602;DHT22;1815;50.950;6.920;2024-03-22T14:15:13;20.60;95.20
3602;DHT22;1815;50.950;6.920;2024-03-22T14:17:39;20.60;95.30
3602;DHT22;1815;50.950;6.920;2024-03-22T14:20:05;20.60;95.30
3602;DHT22;1815;50.950;6.920;2024-03-22T14:22:40;20.60;95.40
3602;DHT22;1815;50.950;6.920;2024-03-22T14:25:07;20.50;95.10
3602;DHT22;1815;50.950;6.920;2024-03-22T14:27:37;20.50;95.00
3602;DHT22;1815;50.950;6.920;2024-03-22T14:30:05;20.50;94.90
3602;DHT22;1815;50.950;6.920;2024-03-22T14:32:34;20.40;94.90
3602;DHT22;1815;50.950;6.920;2024-03-22T14:34:59;20.30;94.90
3602;DHT22;1815;50.950;6.920;2024-03-22T14:37:25;20.30;94.60
3602;DHT22;1815;50.950;6.920;2024-03-22T14:39:51;20.20;94.40
3602;DHT22;1815;50.950;6.920;2024-03-22T14:42:17;20.10;94.50
3602;DHT22;1815;50.950;6.920;2024-03-22T14:44:43;20.10;94.70
3602;DHT22;1815;50.950;6.920;2024-03-22T14:47:08;20.10;94.90
3602;DHT22;1815;50.950;6.920;2024-03-22T14:49:34;20.10;95.00
3602;DHT22;1815;50.950;6.920;2024-03-22T14:52:00;20.00;95.00
3602;DHT22;1815;50.950;6.920;2024-03-22T14:54:26;20.00;95.40
3602;DHT22;1815;50.950;6.920;2024-03-22T14:56:52;20.00;95.20
3602;DHT22;1815;50.950;6.920;2024-03-22T14:59:20;20.00;95.20
3602;DHT22;1815;50.950;6.920;2024-03-22T15:01:45;19.90;95.30
3602;DHT22;1815;50.950;6.920;2024-03-22T15:04:12;19.90;95.50
3602;DHT22;1815;50.950;6.920;2024-03-22T15:06:37;19.80;95.50
3602;DHT22;1815;50.950;6.920;2024-03-22T15:09:04;19.70;95.60
3602;DHT22;1815;50.950;6.920;2024-03-22T15:11:35;19.70;95.80
3602;DHT22;1815;50.950;6.920;2024-03-22T15:14:01;19.60;95.90
3602;DHT22;1815;50.950;6.920;2024-03-22T15:16:28;19.50;96.10
3602;DHT22;1815;50.950;6.920;2024-03-22T15:18:54;19.50;96.40
3602;DHT22;1815;50.950;6.920;2024-03-22T15:21:19;19.40;96.50
3602;DHT22;1815;50.950;6.920;2024-03-22T15:23:46;19.30;96.60
3602;DHT22;1815;50.950;6.920;2024-03-22T15:26:12;19.20;96.70
3602;DHT22;1815;50.950;6.920;2024-03-22T15:28:38;19.20;96.90
3602;DHT22;1815;50.950;6.920;2024-03-22T15:31:04;19.10;97.00
3602;DHT22;1815;50.950;6.920;2024-03-22T15:33:29;19.00;97.30
3602;DHT22;1815;50.950;6.920;2024-03-22T15:35:56;18.90;97.50
3602;DHT22;1815;50.950;6.920;2024-03-22T15:38:21;18.90;97.70
3602;DHT22;1815;50.950;6.920;2024-03-22T15:40:47;18.80;97.90
3602;DHT22;1815;50.950;6.920;2024-03-22T15:43:13;18.70;98.20
3602;DHT22;1815;50.950;6.920;2024-03-22T15:45:39;18.60;97.90
3602;DHT22;1815;50.950;6.920;2024-03-22T15:48:05;18.60;98.10
3602;DHT22;1815;50.950;6.920;2024-03-22T15:50:35;18.50;98.20
3602;DHT22;1815;50.950;6.920;2024-03-22T15:53:02;18.30;98.90
3602;DHT22;1815;50.950;6.920;2024-03-22T15:55:27;18.20;98.70
3602;DHT22;1815;50.950;6.920;2024-03-22T15:57:56;18.10;98.90